Aviation Digital Data Service (ADDS)

Output produced by METARs form (2224 UTC 17 October 2017)
found at http://aviationweather.gov/adds/metars/
 
KSNS 172153Z 29008KT 9SM CLR 22/05 A3005 RMK AO2 SLP185 T02170050
KMRY 172154Z 36004KT 9SM CLR 19/08 A3007 RMK AO2 SLP193 T01940083
KSJC 172153Z 33005KT 8SM FEW023 BKN090 OVC120 26/04 A3005 RMK AO2 SLP175 T02560039
KRHV 172147Z 32005KT 7SM FU OVC100 27/02 A3009
KSFO 172156Z 30008KT 9SM BKN180 26/06 A3005 RMK AO2 SLP176 T02560061
KLVK 172153Z 28003KT 3SM HZ FU CLR 28/01 A3004 RMK AO2 SLP168 T02780011
KMCE 172153Z AUTO 27005KT 7SM CLR 27/03 A3002 RMK AO2 SLP165 T02720028